sensor_id;sensor_type;location;lat;lon;timestamp;P1;durP1;ratioP1;P2;durP2;ratioP2
60233;SDS011;49514;43.538;-5.708;2023-05-21T00:00:48;13.10;;;5.90;;
60233;SDS011;49514;43.538;-5.708;2023-05-21T00:03:16;12.75;;;5.82;;
60233;SDS011;49514;43.538;-5.708;2023-05-21T00:05:43;12.45;;;6.55;;
60233;SDS011;49514;43.538;-5.708;2023-05-21T00:08:14;12.80;;;6.25;;
60233;SDS011;49514;43.538;-5.708;2023-05-21T00:10:41;13.90;;;6.40;;
60233;SDS011;49514;43.538;-5.708;2023-05-21T00:13:08;14.15;;;6.30;;
60233;SDS011;49514;43.538;-5.708;2023-05-21T00:15:35;13.48;;;6.15;;
60233;SDS011;49514;43.538;-5.708;2023-05-21T00:18:02;13.73;;;6.18;;
60233;SDS011;49514;43.538;-5.708;2023-05-21T00:20:29;10.77;;;5.90;;
60233;SDS011;49514;43.538;-5.708;2023-05-21T00:22:57;12.65;;;6.22;;
60233;SDS011;49514;43.538;-5.708;2023-05-21T00:25:24;12.55;;;6.53;;
60233;SDS011;49514;43.538;-5.708;2023-05-21T00:27:51;12.68;;;6.10;;
60233;SDS011;49514;43.538;-5.708;2023-05-21T00:30:17;14.10;;;6.22;;
60233;SDS011;49514;43.538;-5.708;2023-05-21T00:32:44;13.83;;;6.50;;
60233;SDS011;49514;43.538;-5.708;2023-05-21T00:35:10;13.05;;;6.40;;
60233;SDS011;49514;43.538;-5.708;2023-05-21T00:37:37;14.10;;;6.97;;
60233;SDS011;49514;43.538;-5.708;2023-05-21T00:40:04;12.65;;;6.07;;
60233;SDS011;49514;43.538;-5.708;2023-05-21T00:42:33;14.13;;;6.85;;
60233;SDS011;49514;43.538;-5.708;2023-05-21T00:45:05;13.10;;;7.43;;
60233;SDS011;49514;43.538;-5.708;2023-05-21T00:47:32;12.95;;;6.25;;
60233;SDS011;49514;43.538;-5.708;2023-05-21T00:50:01;10.80;;;6.28;;
60233;SDS011;49514;43.538;-5.708;2023-05-21T00:52:28;14.97;;;7.20;;
60233;SDS011;49514;43.538;-5.708;2023-05-21T00:54:55;12.20;;;6.90;;
60233;SDS011;49514;43.538;-5.708;2023-05-21T00:57:24;13.93;;;6.35;;
60233;SDS011;49514;43.538;-5.708;2023-05-21T00:59:52;12.95;;;6.70;;
60233;SDS011;49514;43.538;-5.708;2023-05-21T01:02:19;13.93;;;6.60;;
60233;SDS011;49514;43.538;-5.708;2023-05-21T01:04:48;12.80;;;7.40;;
60233;SDS011;49514;43.538;-5.708;2023-05-21T01:07:15;13.60;;;7.55;;
60233;SDS011;49514;43.538;-5.708;2023-05-21T01:09:43;13.50;;;7.20;;
60233;SDS011;49514;43.538;-5.708;2023-05-21T01:12:10;15.00;;;7.60;;
60233;SDS011;49514;43.538;-5.708;2023-05-21T01:14:38;16.45;;;7.22;;
60233;SDS011;49514;43.538;-5.708;2023-05-21T01:17:05;12.88;;;7.15;;
60233;SDS011;49514;43.538;-5.708;2023-05-21T01:19:35;12.55;;;6.55;;
60233;SDS011;49514;43.538;-5.708;2023-05-21T01:22:06;16.00;;;8.82;;
60233;SDS011;49514;43.538;-5.708;2023-05-21T01:24:34;14.77;;;7.87;;
60233;SDS011;49514;43.538;-5.708;2023-05-21T01:27:01;14.65;;;8.50;;
60233;SDS011;49514;43.538;-5.708;2023-05-21T01:29:31;13.60;;;8.30;;
60233;SDS011;49514;43.538;-5.708;2023-05-21T01:32:02;12.87;;;6.83;;
60233;SDS011;49514;43.538;-5.708;2023-05-21T01:35:01;12.35;;;6.97;;
60233;SDS011;49514;43.538;-5.708;2023-05-21T01:37:36;12.53;;;7.13;;
60233;SDS011;49514;43.538;-5.708;2023-05-21T01:42:56;13.07;;;8.00;;
60233;SDS011;49514;43.538;-5.708;2023-05-21T01:45:24;12.40;;;7.33;;
60233;SDS011;49514;43.538;-5.708;2023-05-21T01:47:53;10.75;;;6.93;;
60233;SDS011;49514;43.538;-5.708;2023-05-21T01:50:21;14.07;;;7.50;;
60233;SDS011;49514;43.538;-5.708;2023-05-21T01:52:53;14.90;;;8.43;;
60233;SDS011;49514;43.538;-5.708;2023-05-21T01:55:26;15.80;;;8.27;;
60233;SDS011;49514;43.538;-5.708;2023-05-21T01:57:53;13.35;;;7.93;;
60233;SDS011;49514;43.538;-5.708;2023-05-21T02:00:20;13.07;;;7.78;;
60233;SDS011;49514;43.538;-5.708;2023-05-21T02:02:48;13.27;;;7.65;;
60233;SDS011;49514;43.538;-5.708;2023-05-21T02:05:15;14.57;;;8.70;;
60233;SDS011;49514;43.538;-5.708;2023-05-21T02:07:43;17.15;;;8.45;;
60233;SDS011;49514;43.538;-5.708;2023-05-21T02:10:10;13.60;;;8.73;;
60233;SDS011;49514;43.538;-5.708;2023-05-21T02:12:37;15.73;;;8.90;;
60233;SDS011;49514;43.538;-5.708;2023-05-21T02:15:04;18.02;;;10.90;;
60233;SDS011;49514;43.538;-5.708;2023-05-21T02:17:31;19.38;;;11.00;;
60233;SDS011;49514;43.538;-5.708;2023-05-21T02:20:00;19.17;;;10.82;;
60233;SDS011;49514;43.538;-5.708;2023-05-21T02:22:40;18.98;;;9.45;;
60233;SDS011;49514;43.538;-5.708;2023-05-21T02:25:08;20.13;;;10.70;;
60233;SDS011;49514;43.538;-5.708;2023-05-21T02:27:35;18.88;;;10.77;;
60233;SDS011;49514;43.538;-5.708;2023-05-21T02:30:03;20.88;;;12.23;;
60233;SDS011;49514;43.538;-5.708;2023-05-21T02:32:32;20.40;;;11.45;;
60233;SDS011;49514;43.538;-5.708;2023-05-21T02:35:00;18.43;;;11.40;;
60233;SDS011;49514;43.538;-5.708;2023-05-21T02:37:29;19.93;;;11.80;;
60233;SDS011;49514;43.538;-5.708;2023-05-21T02:40:03;18.50;;;11.50;;
60233;SDS011;49514;43.538;-5.708;2023-05-21T02:42:33;21.67;;;10.80;;
60233;SDS011;49514;43.538;-5.708;2023-05-21T02:45:01;26.67;;;13.20;;
60233;SDS011;49514;43.538;-5.708;2023-05-21T02:47:30;26.40;;;13.45;;
60233;SDS011;49514;43.538;-5.708;2023-05-21T02:49:59;19.20;;;11.10;;
60233;SDS011;49514;43.538;-5.708;2023-05-21T02:52:30;21.73;;;11.10;;
60233;SDS011;49514;43.538;-5.708;2023-05-21T02:54:56;18.95;;;10.88;;
60233;SDS011;49514;43.538;-5.708;2023-05-21T02:57:23;20.33;;;11.32;;
60233;SDS011;49514;43.538;-5.708;2023-05-21T02:59:50;19.75;;;10.45;;
60233;SDS011;49514;43.538;-5.708;2023-05-21T03:02:17;16.48;;;10.50;;
60233;SDS011;49514;43.538;-5.708;2023-05-21T03:04:44;16.10;;;10.48;;
60233;SDS011;49514;43.538;-5.708;2023-05-21T03:07:12;16.40;;;11.15;;
60233;SDS011;49514;43.538;-5.708;2023-05-21T03:09:40;20.23;;;10.77;;
60233;SDS011;49514;43.538;-5.708;2023-05-21T03:12:08;18.45;;;11.18;;
60233;SDS011;49514;43.538;-5.708;2023-05-21T03:14:35;21.50;;;11.23;;
60233;SDS011;49514;43.538;-5.708;2023-05-21T03:17:02;20.27;;;11.87;;
60233;SDS011;49514;43.538;-5.708;2023-05-21T03:19:32;16.38;;;10.45;;
60233;SDS011;49514;43.538;-5.708;2023-05-21T03:22:02;18.65;;;11.20;;
60233;SDS011;49514;43.538;-5.708;2023-05-21T03:24:31;18.50;;;10.83;;
60233;SDS011;49514;43.538;-5.708;2023-05-21T03:27:00;18.35;;;10.15;;
60233;SDS011;49514;43.538;-5.708;2023-05-21T03:29:27;19.30;;;11.67;;
60233;SDS011;49514;43.538;-5.708;2023-05-21T03:31:54;19.03;;;11.80;;
60233;SDS011;49514;43.538;-5.708;2023-05-21T03:34:22;24.30;;;13.43;;
60233;SDS011;49514;43.538;-5.708;2023-05-21T03:36:49;22.42;;;12.98;;
60233;SDS011;49514;43.538;-5.708;2023-05-21T03:39:17;23.83;;;13.38;;
60233;SDS011;49514;43.538;-5.708;2023-05-21T03:41:44;26.27;;;13.60;;
60233;SDS011;49514;43.538;-5.708;2023-05-21T03:44:27;25.85;;;14.52;;
60233;SDS011;49514;43.538;-5.708;2023-05-21T03:47:09;20.00;;;13.03;;
60233;SDS011;49514;43.538;-5.708;2023-05-21T03:49:36;20.47;;;11.80;;
60233;SDS011;49514;43.538;-5.708;2023-05-21T03:52:03;18.05;;;11.52;;
60233;SDS011;49514;43.538;-5.708;2023-05-21T03:54:30;19.73;;;12.05;;
60233;SDS011;49514;43.538;-5.708;2023-05-21T03:57:01;20.88;;;11.75;;
60233;SDS011;49514;43.538;-5.708;2023-05-21T03:59:28;22.17;;;11.98;;
60233;SDS011;49514;43.538;-5.708;2023-05-21T04:01:55;22.73;;;12.60;;
60233;SDS011;49514;43.538;-5.708;2023-05-21T04:04:21;22.27;;;12.63;;
60233;SDS011;49514;43.538;-5.708;2023-05-21T04:06:49;20.80;;;12.65;;
60233;SDS011;49514;43.538;-5.708;2023-05-21T04:09:16;25.98;;;14.07;;
60233;SDS011;49514;43.538;-5.708;2023-05-21T04:11:43;24.63;;;14.97;;
60233;SDS011;49514;43.538;-5.708;2023-05-21T04:14:09;27.45;;;14.60;;
60233;SDS011;49514;43.538;-5.708;2023-05-21T04:16:36;23.00;;;13.73;;
60233;SDS011;49514;43.538;-5.708;2023-05-21T04:19:03;23.25;;;13.48;;
60233;SDS011;49514;43.538;-5.708;2023-05-21T04:21:31;24.00;;;14.35;;
60233;SDS011;49514;43.538;-5.708;2023-05-21T04:23:58;24.85;;;14.18;;
60233;SDS011;49514;43.538;-5.708;2023-05-21T04:26:55;21.73;;;12.18;;
60233;SDS011;49514;43.538;-5.708;2023-05-21T04:29:26;21.15;;;12.50;;
60233;SDS011;49514;43.538;-5.708;2023-05-21T04:31:55;23.02;;;12.35;;
60233;SDS011;49514;43.538;-5.708;2023-05-21T04:34:22;22.33;;;12.73;;
60233;SDS011;49514;43.538;-5.708;2023-05-21T04:36:49;23.00;;;11.88;;
60233;SDS011;49514;43.538;-5.708;2023-05-21T04:39:16;17.83;;;10.98;;
60233;SDS011;49514;43.538;-5.708;2023-05-21T04:41:43;20.75;;;11.38;;
60233;SDS011;49514;43.538;-5.708;2023-05-21T04:44:10;20.73;;;11.38;;
60233;SDS011;49514;43.538;-5.708;2023-05-21T04:46:39;20.13;;;11.50;;
60233;SDS011;49514;43.538;-5.708;2023-05-21T04:49:06;18.80;;;11.18;;
60233;SDS011;49514;43.538;-5.708;2023-05-21T04:51:34;18.50;;;11.00;;
60233;SDS011;49514;43.538;-5.708;2023-05-21T04:54:02;18.67;;;11.13;;
60233;SDS011;49514;43.538;-5.708;2023-05-21T04:56:29;18.73;;;11.73;;
60233;SDS011;49514;43.538;-5.708;2023-05-21T04:58:56;21.13;;;12.32;;
60233;SDS011;49514;43.538;-5.708;2023-05-21T05:01:23;21.25;;;11.10;;
60233;SDS011;49514;43.538;-5.708;2023-05-21T05:03:52;25.27;;;13.48;;
60233;SDS011;49514;43.538;-5.708;2023-05-21T05:06:18;23.90;;;11.98;;
60233;SDS011;49514;43.538;-5.708;2023-05-21T05:08:46;26.33;;;13.20;;
60233;SDS011;49514;43.538;-5.708;2023-05-21T05:11:15;26.83;;;12.98;;
60233;SDS011;49514;43.538;-5.708;2023-05-21T05:13:42;34.10;;;13.25;;
60233;SDS011;49514;43.538;-5.708;2023-05-21T05:16:08;29.37;;;14.33;;
60233;SDS011;49514;43.538;-5.708;2023-05-21T05:18:35;27.83;;;14.07;;
60233;SDS011;49514;43.538;-5.708;2023-05-21T05:21:02;30.02;;;15.57;;
60233;SDS011;49514;43.538;-5.708;2023-05-21T05:23:28;28.75;;;14.65;;
60233;SDS011;49514;43.538;-5.708;2023-05-21T05:25:55;25.38;;;14.57;;
60233;SDS011;49514;43.538;-5.708;2023-05-21T05:28:22;28.75;;;16.48;;
60233;SDS011;49514;43.538;-5.708;2023-05-21T05:30:49;26.27;;;14.70;;
60233;SDS011;49514;43.538;-5.708;2023-05-21T05:33:21;31.92;;;17.15;;
60233;SDS011;49514;43.538;-5.708;2023-05-21T05:35:48;30.63;;;15.30;;
60233;SDS011;49514;43.538;-5.708;2023-05-21T05:38:15;28.95;;;14.70;;
60233;SDS011;49514;43.538;-5.708;2023-05-21T05:40:42;24.13;;;12.48;;
60233;SDS011;49514;43.538;-5.708;2023-05-21T05:43:08;19.73;;;12.27;;
60233;SDS011;49514;43.538;-5.708;2023-05-21T05:45:35;34.47;;;17.17;;
60233;SDS011;49514;43.538;-5.708;2023-05-21T05:48:07;29.58;;;14.30;;
60233;SDS011;49514;43.538;-5.708;2023-05-21T05:50:35;27.08;;;14.55;;
60233;SDS011;49514;43.538;-5.708;2023-05-21T05:53:02;33.30;;;17.03;;
60233;SDS011;49514;43.538;-5.708;2023-05-21T05:55:29;36.57;;;17.90;;
60233;SDS011;49514;43.538;-5.708;2023-05-21T05:57:56;30.98;;;17.40;;
60233;SDS011;49514;43.538;-5.708;2023-05-21T06:00:22;21.80;;;13.23;;
60233;SDS011;49514;43.538;-5.708;2023-05-21T06:02:50;23.00;;;12.52;;
60233;SDS011;49514;43.538;-5.708;2023-05-21T06:05:17;28.60;;;11.55;;
60233;SDS011;49514;43.538;-5.708;2023-05-21T06:07:43;22.23;;;10.88;;
60233;SDS011;49514;43.538;-5.708;2023-05-21T06:10:10;23.43;;;12.33;;
60233;SDS011;49514;43.538;-5.708;2023-05-21T06:12:37;24.45;;;12.70;;
60233;SDS011;49514;43.538;-5.708;2023-05-21T06:15:05;23.07;;;11.13;;
60233;SDS011;49514;43.538;-5.708;2023-05-21T06:17:33;21.70;;;11.40;;
60233;SDS011;49514;43.538;-5.708;2023-05-21T06:19:59;29.73;;;15.23;;
60233;SDS011;49514;43.538;-5.708;2023-05-21T06:22:27;28.43;;;15.83;;
60233;SDS011;49514;43.538;-5.708;2023-05-21T06:24:54;24.95;;;13.77;;
60233;SDS011;49514;43.538;-5.708;2023-05-21T06:27:21;24.10;;;13.63;;
60233;SDS011;49514;43.538;-5.708;2023-05-21T06:29:48;26.77;;;15.35;;
60233;SDS011;49514;43.538;-5.708;2023-05-21T06:32:15;28.67;;;14.95;;
60233;SDS011;49514;43.538;-5.708;2023-05-21T06:34:42;25.77;;;15.55;;
60233;SDS011;49514;43.538;-5.708;2023-05-21T06:37:08;27.25;;;14.38;;
60233;SDS011;49514;43.538;-5.708;2023-05-21T06:39:35;26.03;;;14.93;;
60233;SDS011;49514;43.538;-5.708;2023-05-21T06:42:02;24.00;;;14.02;;
60233;SDS011;49514;43.538;-5.708;2023-05-21T06:44:59;22.42;;;13.05;;
60233;SDS011;49514;43.538;-5.708;2023-05-21T06:47:30;24.58;;;13.00;;
60233;SDS011;49514;43.538;-5.708;2023-05-21T06:49:57;30.17;;;14.23;;
60233;SDS011;49514;43.538;-5.708;2023-05-21T06:52:24;23.08;;;13.23;;
60233;SDS011;49514;43.538;-5.708;2023-05-21T06:54:54;17.17;;;10.85;;
60233;SDS011;49514;43.538;-5.708;2023-05-21T06:57:22;15.55;;;10.10;;
60233;SDS011;49514;43.538;-5.708;2023-05-21T06:59:48;16.05;;;9.93;;
60233;SDS011;49514;43.538;-5.708;2023-05-21T07:02:15;16.77;;;10.53;;
60233;SDS011;49514;43.538;-5.708;2023-05-21T07:04:42;17.92;;;10.75;;
60233;SDS011;49514;43.538;-5.708;2023-05-21T07:07:08;17.73;;;10.10;;
60233;SDS011;49514;43.538;-5.708;2023-05-21T07:09:35;14.82;;;9.13;;
60233;SDS011;49514;43.538;-5.708;2023-05-21T07:12:02;19.23;;;10.80;;
60233;SDS011;49514;43.538;-5.708;2023-05-21T07:14:29;18.83;;;10.38;;
60233;SDS011;49514;43.538;-5.708;2023-05-21T07:16:55;12.75;;;8.52;;
60233;SDS011;49514;43.538;-5.708;2023-05-21T07:19:22;14.05;;;8.32;;
60233;SDS011;49514;43.538;-5.708;2023-05-21T07:21:49;12.65;;;8.38;;
60233;SDS011;49514;43.538;-5.708;2023-05-21T07:24:16;12.00;;;7.90;;
60233;SDS011;49514;43.538;-5.708;2023-05-21T07:26:42;15.03;;;8.00;;
60233;SDS011;49514;43.538;-5.708;2023-05-21T07:29:10;17.23;;;9.75;;
60233;SDS011;49514;43.538;-5.708;2023-05-21T07:31:37;13.60;;;8.35;;
60233;SDS011;49514;43.538;-5.708;2023-05-21T07:34:04;13.15;;;8.00;;
60233;SDS011;49514;43.538;-5.708;2023-05-21T07:36:31;11.93;;;8.67;;
60233;SDS011;49514;43.538;-5.708;2023-05-21T07:39:00;12.50;;;7.93;;
60233;SDS011;49514;43.538;-5.708;2023-05-21T07:41:27;13.63;;;8.07;;
60233;SDS011;49514;43.538;-5.708;2023-05-21T07:43:54;10.90;;;7.80;;
60233;SDS011;49514;43.538;-5.708;2023-05-21T07:46:21;11.93;;;7.28;;
60233;SDS011;49514;43.538;-5.708;2023-05-21T07:48:52;12.90;;;8.00;;
60233;SDS011;49514;43.538;-5.708;2023-05-21T07:51:19;12.93;;;7.25;;
60233;SDS011;49514;43.538;-5.708;2023-05-21T07:53:46;10.70;;;7.03;;
60233;SDS011;49514;43.538;-5.708;2023-05-21T07:56:15;11.25;;;7.07;;
60233;SDS011;49514;43.538;-5.708;2023-05-21T07:58:42;11.07;;;7.28;;
60233;SDS011;49514;43.538;-5.708;2023-05-21T08:01:12;10.20;;;6.97;;
60233;SDS011;49514;43.538;-5.708;2023-05-21T08:03:39;12.35;;;6.57;;
60233;SDS011;49514;43.538;-5.708;2023-05-21T08:06:06;11.40;;;7.72;;
60233;SDS011;49514;43.538;-5.708;2023-05-21T08:08:33;11.38;;;7.18;;
60233;SDS011;49514;43.538;-5.708;2023-05-21T08:10:59;13.87;;;7.63;;
60233;SDS011;49514;43.538;-5.708;2023-05-21T08:13:27;13.68;;;7.72;;
60233;SDS011;49514;43.538;-5.708;2023-05-21T08:15:54;12.10;;;7.70;;
60233;SDS011;49514;43.538;-5.708;2023-05-21T08:18:22;10.75;;;7.05;;
60233;SDS011;49514;43.538;-5.708;2023-05-21T08:20:50;12.55;;;7.20;;
60233;SDS011;49514;43.538;-5.708;2023-05-21T08:23:19;13.00;;;7.25;;
60233;SDS011;49514;43.538;-5.708;2023-05-21T08:25:50;12.23;;;7.13;;
60233;SDS011;49514;43.538;-5.708;2023-05-21T08:28:20;12.32;;;6.80;;
60233;SDS011;49514;43.538;-5.708;2023-05-21T08:30:48;13.60;;;7.37;;
60233;SDS011;49514;43.538;-5.708;2023-05-21T08:33:16;14.10;;;7.72;;
60233;SDS011;49514;43.538;-5.708;2023-05-21T08:35:43;11.95;;;8.32;;
60233;SDS011;49514;43.538;-5.708;2023-05-21T08:38:37;11.60;;;7.40;;
60233;SDS011;49514;43.538;-5.708;2023-05-21T08:41:15;11.18;;;7.95;;
60233;SDS011;49514;43.538;-5.708;2023-05-21T08:43:54;13.60;;;8.13;;
60233;SDS011;49514;43.538;-5.708;2023-05-21T08:46:26;10.10;;;7.43;;
60233;SDS011;49514;43.538;-5.708;2023-05-21T08:48:57;11.27;;;7.90;;
60233;SDS011;49514;43.538;-5.708;2023-05-21T08:51:29;14.27;;;8.45;;
60233;SDS011;49514;43.538;-5.708;2023-05-21T08:53:56;12.55;;;8.30;;
60233;SDS011;49514;43.538;-5.708;2023-05-21T08:56:24;13.50;;;8.70;;
60233;SDS011;49514;43.538;-5.708;2023-05-21T08:58:53;15.52;;;10.70;;
60233;SDS011;49514;43.538;-5.708;2023-05-21T09:01:25;14.77;;;9.48;;
60233;SDS011;49514;43.538;-5.708;2023-05-21T09:04:01;14.50;;;9.93;;
60233;SDS011;49514;43.538;-5.708;2023-05-21T09:06:29;13.35;;;9.05;;
60233;SDS011;49514;43.538;-5.708;2023-05-21T09:09:01;12.23;;;8.27;;
60233;SDS011;49514;43.538;-5.708;2023-05-21T09:11:46;15.18;;;8.98;;
60233;SDS011;49514;43.538;-5.708;2023-05-21T09:14:14;11.80;;;8.15;;
60233;SDS011;49514;43.538;-5.708;2023-05-21T09:16:55;12.97;;;8.57;;
60233;SDS011;49514;43.538;-5.708;2023-05-21T09:19:22;14.10;;;8.48;;
60233;SDS011;49514;43.538;-5.708;2023-05-21T09:21:50;11.32;;;7.82;;
60233;SDS011;49514;43.538;-5.708;2023-05-21T09:24:24;12.15;;;7.05;;
60233;SDS011;49514;43.538;-5.708;2023-05-21T09:26:56;12.50;;;7.90;;
60233;SDS011;49514;43.538;-5.708;2023-05-21T09:29:25;11.55;;;7.38;;
60233;SDS011;49514;43.538;-5.708;2023-05-21T09:31:52;12.48;;;7.65;;
60233;SDS011;49514;43.538;-5.708;2023-05-21T09:34:20;10.80;;;6.93;;
60233;SDS011;49514;43.538;-5.708;2023-05-21T09:36:50;11.55;;;7.15;;
60233;SDS011;49514;43.538;-5.708;2023-05-21T09:39:27;12.07;;;7.55;;
60233;SDS011;49514;43.538;-5.708;2023-05-21T09:41:56;13.38;;;7.43;;
60233;SDS011;49514;43.538;-5.708;2023-05-21T09:44:23;13.23;;;8.03;;
60233;SDS011;49514;43.538;-5.708;2023-05-21T09:46:55;14.00;;;7.60;;
60233;SDS011;49514;43.538;-5.708;2023-05-21T09:49:23;14.55;;;7.72;;
60233;SDS011;49514;43.538;-5.708;2023-05-21T09:51:55;12.02;;;7.75;;
60233;SDS011;49514;43.538;-5.708;2023-05-21T09:54:22;12.05;;;7.00;;
60233;SDS011;49514;43.538;-5.708;2023-05-21T09:56:50;12.93;;;7.50;;
60233;SDS011;49514;43.538;-5.708;2023-05-21T09:59:18;14.52;;;7.63;;
60233;SDS011;49514;43.538;-5.708;2023-05-21T10:01:46;14.85;;;7.10;;
60233;SDS011;49514;43.538;-5.708;2023-05-21T10:04:16;13.02;;;7.40;;
60233;SDS011;49514;43.538;-5.708;2023-05-21T10:06:43;13.13;;;7.47;;
60233;SDS011;49514;43.538;-5.708;2023-05-21T10:09:13;21.37;;;7.07;;
60233;SDS011;49514;43.538;-5.708;2023-05-21T10:11:43;13.70;;;7.70;;
60233;SDS011;49514;43.538;-5.708;2023-05-21T10:14:18;11.87;;;7.40;;
60233;SDS011;49514;43.538;-5.708;2023-05-21T10:16:47;9.48;;;6.65;;
60233;SDS011;49514;43.538;-5.708;2023-05-21T10:19:15;10.00;;;6.60;;
60233;SDS011;49514;43.538;-5.708;2023-05-21T10:21:42;12.93;;;7.22;;
60233;SDS011;49514;43.538;-5.708;2023-05-21T10:24:10;9.93;;;6.90;;
60233;SDS011;49514;43.538;-5.708;2023-05-21T10:26:38;13.13;;;7.90;;
60233;SDS011;49514;43.538;-5.708;2023-05-21T10:29:07;18.63;;;8.75;;
60233;SDS011;49514;43.538;-5.708;2023-05-21T10:31:34;14.88;;;7.97;;
60233;SDS011;49514;43.538;-5.708;2023-05-21T10:34:04;12.48;;;8.52;;
60233;SDS011;49514;43.538;-5.708;2023-05-21T10:36:31;12.43;;;7.80;;
60233;SDS011;49514;43.538;-5.708;2023-05-21T10:38:59;11.90;;;7.20;;
60233;SDS011;49514;43.538;-5.708;2023-05-21T10:41:26;13.37;;;8.10;;
60233;SDS011;49514;43.538;-5.708;2023-05-21T10:44:10;11.70;;;7.35;;
60233;SDS011;49514;43.538;-5.708;2023-05-21T10:47:04;12.20;;;8.07;;
60233;SDS011;49514;43.538;-5.708;2023-05-21T11:00:43;13.90;;;8.30;;
60233;SDS011;49514;43.538;-5.708;2023-05-21T11:03:11;14.23;;;7.93;;
60233;SDS011;49514;43.538;-5.708;2023-05-21T11:06:01;16.05;;;8.57;;
60233;SDS011;49514;43.538;-5.708;2023-05-21T11:08:28;11.70;;;8.25;;
60233;SDS011;49514;43.538;-5.708;2023-05-21T11:11:01;13.38;;;8.25;;
60233;SDS011;49514;43.538;-5.708;2023-05-21T11:13:43;12.40;;;7.95;;
60233;SDS011;49514;43.538;-5.708;2023-05-21T11:16:14;12.73;;;7.67;;
60233;SDS011;49514;43.538;-5.708;2023-05-21T11:21:15;13.50;;;9.50;;
60233;SDS011;49514;43.538;-5.708;2023-05-21T11:26:16;15.70;;;9.43;;
60233;SDS011;49514;43.538;-5.708;2023-05-21T11:28:44;14.83;;;9.80;;
60233;SDS011;49514;43.538;-5.708;2023-05-21T11:31:21;17.90;;;10.80;;
60233;SDS011;49514;43.538;-5.708;2023-05-21T11:34:11;16.33;;;10.70;;
60233;SDS011;49514;43.538;-5.708;2023-05-21T13:02:28;6.72;;;3.88;;
60233;SDS011;49514;43.538;-5.708;2023-05-21T13:05:01;7.40;;;3.78;;
60233;SDS011;49514;43.538;-5.708;2023-05-21T13:07:31;9.60;;;3.87;;
60233;SDS011;49514;43.538;-5.708;2023-05-21T13:10:00;8.00;;;3.50;;
60233;SDS011;49514;43.538;-5.708;2023-05-21T13:12:27;9.40;;;3.85;;
60233;SDS011;49514;43.538;-5.708;2023-05-21T13:14:56;8.27;;;3.33;;
60233;SDS011;49514;43.538;-5.708;2023-05-21T13:17:24;4.93;;;2.80;;
60233;SDS011;49514;43.538;-5.708;2023-05-21T13:22:38;4.60;;;2.43;;
60233;SDS011;49514;43.538;-5.708;2023-05-21T13:25:11;5.87;;;2.30;;
60233;SDS011;49514;43.538;-5.708;2023-05-21T13:27:43;5.03;;;2.10;;
60233;SDS011;49514;43.538;-5.708;2023-05-21T13:30:10;4.35;;;2.10;;
60233;SDS011;49514;43.538;-5.708;2023-05-21T13:32:37;4.03;;;1.80;;
60233;SDS011;49514;43.538;-5.708;2023-05-21T15:59:45;5.07;;;1.42;;
60233;SDS011;49514;43.538;-5.708;2023-05-21T16:02:12;4.28;;;1.50;;
60233;SDS011;49514;43.538;-5.708;2023-05-21T16:04:39;7.07;;;1.75;;
60233;SDS011;49514;43.538;-5.708;2023-05-21T16:07:06;4.53;;;1.60;;
60233;SDS011;49514;43.538;-5.708;2023-05-21T16:09:32;6.05;;;1.63;;
60233;SDS011;49514;43.538;-5.708;2023-05-21T16:12:02;4.68;;;1.65;;
60233;SDS011;49514;43.538;-5.708;2023-05-21T16:14:29;4.00;;;1.70;;
60233;SDS011;49514;43.538;-5.708;2023-05-21T16:16:58;6.15;;;1.90;;
60233;SDS011;49514;43.538;-5.708;2023-05-21T16:19:25;4.53;;;1.77;;
60233;SDS011;49514;43.538;-5.708;2023-05-21T16:21:52;5.05;;;1.70;;
60233;SDS011;49514;43.538;-5.708;2023-05-21T16:24:19;5.15;;;1.85;;
60233;SDS011;49514;43.538;-5.708;2023-05-21T16:26:46;8.45;;;2.00;;
60233;SDS011;49514;43.538;-5.708;2023-05-21T16:29:14;8.25;;;1.98;;
60233;SDS011;49514;43.538;-5.708;2023-05-21T16:31:41;7.97;;;2.28;;
60233;SDS011;49514;43.538;-5.708;2023-05-21T16:39:03;7.07;;;1.80;;
60233;SDS011;49514;43.538;-5.708;2023-05-21T16:41:29;4.40;;;1.70;;
60233;SDS011;49514;43.538;-5.708;2023-05-21T16:43:56;3.90;;;1.70;;
60233;SDS011;49514;43.538;-5.708;2023-05-21T16:46:23;6.75;;;2.53;;
60233;SDS011;49514;43.538;-5.708;2023-05-21T16:48:49;6.68;;;2.72;;
60233;SDS011;49514;43.538;-5.708;2023-05-21T16:51:16;2.83;;;1.50;;
60233;SDS011;49514;43.538;-5.708;2023-05-21T16:53:44;6.82;;;2.03;;
60233;SDS011;49514;43.538;-5.708;2023-05-21T17:08:24;4.70;;;2.08;;
60233;SDS011;49514;43.538;-5.708;2023-05-21T17:10:51;7.63;;;2.45;;
60233;SDS011;49514;43.538;-5.708;2023-05-21T17:13:20;8.40;;;2.30;;
60233;SDS011;49514;43.538;-5.708;2023-05-21T17:15:47;4.38;;;1.73;;
60233;SDS011;49514;43.538;-5.708;2023-05-21T17:18:14;6.03;;;1.90;;
60233;SDS011;49514;43.538;-5.708;2023-05-21T17:20:41;5.03;;;1.98;;
60233;SDS011;49514;43.538;-5.708;2023-05-21T17:23:08;5.30;;;1.98;;
60233;SDS011;49514;43.538;-5.708;2023-05-21T17:25:36;6.38;;;2.38;;
60233;SDS011;49514;43.538;-5.708;2023-05-21T17:28:03;7.43;;;2.40;;
60233;SDS011;49514;43.538;-5.708;2023-05-21T17:30:31;4.63;;;2.22;;
60233;SDS011;49514;43.538;-5.708;2023-05-21T17:32:58;3.65;;;1.92;;
60233;SDS011;49514;43.538;-5.708;2023-05-21T17:35:27;6.00;;;2.58;;
60233;SDS011;49514;43.538;-5.708;2023-05-21T17:37:53;5.53;;;2.60;;
60233;SDS011;49514;43.538;-5.708;2023-05-21T17:40:20;9.32;;;2.50;;
60233;SDS011;49514;43.538;-5.708;2023-05-21T17:42:49;6.00;;;2.33;;
60233;SDS011;49514;43.538;-5.708;2023-05-21T17:45:17;6.20;;;2.22;;
60233;SDS011;49514;43.538;-5.708;2023-05-21T17:47:44;5.75;;;2.40;;
60233;SDS011;49514;43.538;-5.708;2023-05-21T17:50:11;6.78;;;2.67;;
60233;SDS011;49514;43.538;-5.708;2023-05-21T17:52:37;9.18;;;2.72;;
60233;SDS011;49514;43.538;-5.708;2023-05-21T17:55:05;7.50;;;2.67;;
60233;SDS011;49514;43.538;-5.708;2023-05-21T17:57:32;10.10;;;2.47;;
60233;SDS011;49514;43.538;-5.708;2023-05-21T18:00:00;7.00;;;2.30;;
60233;SDS011;49514;43.538;-5.708;2023-05-21T18:02:38;7.95;;;2.60;;
60233;SDS011;49514;43.538;-5.708;2023-05-21T18:05:05;6.95;;;2.55;;
60233;SDS011;49514;43.538;-5.708;2023-05-21T18:07:33;6.97;;;2.78;;
60233;SDS011;49514;43.538;-5.708;2023-05-21T18:10:02;6.93;;;2.35;;
60233;SDS011;49514;43.538;-5.708;2023-05-21T18:12:29;5.88;;;2.03;;
60233;SDS011;49514;43.538;-5.708;2023-05-21T18:14:59;6.18;;;2.55;;
60233;SDS011;49514;43.538;-5.708;2023-05-21T18:17:27;5.20;;;2.55;;
60233;SDS011;49514;43.538;-5.708;2023-05-21T18:19:53;6.32;;;2.47;;
60233;SDS011;49514;43.538;-5.708;2023-05-21T18:22:21;6.93;;;2.85;;
60233;SDS011;49514;43.538;-5.708;2023-05-21T18:24:48;7.72;;;3.30;;
60233;SDS011;49514;43.538;-5.708;2023-05-21T18:27:15;9.70;;;3.47;;
60233;SDS011;49514;43.538;-5.708;2023-05-21T18:29:42;6.78;;;3.08;;
60233;SDS011;49514;43.538;-5.708;2023-05-21T18:32:08;7.65;;;2.83;;
60233;SDS011;49514;43.538;-5.708;2023-05-21T18:34:36;11.07;;;3.00;;
60233;SDS011;49514;43.538;-5.708;2023-05-21T18:37:03;9.70;;;2.58;;
60233;SDS011;49514;43.538;-5.708;2023-05-21T18:39:29;5.57;;;2.42;;
60233;SDS011;49514;43.538;-5.708;2023-05-21T18:41:56;7.75;;;3.10;;
60233;SDS011;49514;43.538;-5.708;2023-05-21T18:44:23;8.13;;;2.40;;
60233;SDS011;49514;43.538;-5.708;2023-05-21T18:46:53;8.55;;;3.22;;
60233;SDS011;49514;43.538;-5.708;2023-05-21T18:49:22;9.07;;;2.70;;
60233;SDS011;49514;43.538;-5.708;2023-05-21T18:51:50;8.45;;;2.65;;
60233;SDS011;49514;43.538;-5.708;2023-05-21T18:54:18;8.85;;;2.35;;
60233;SDS011;49514;43.538;-5.708;2023-05-21T18:56:45;6.47;;;2.40;;
60233;SDS011;49514;43.538;-5.708;2023-05-21T18:59:12;8.32;;;2.67;;